createdAt,value
2022-12-28T00:00:18.243Z,18.00
2022-12-28T00:02:46.986Z,20.67
2022-12-28T00:05:15.537Z,23.27
2022-12-28T00:07:43.806Z,19.97
2022-12-28T00:10:13.892Z,19.30
2022-12-28T00:12:42.559Z,17.27
2022-12-28T00:15:11.552Z,22.50
2022-12-28T00:17:39.947Z,19.67
2022-12-28T00:20:09.329Z,17.40
2022-12-28T00:22:38.251Z,24.30
2022-12-28T00:25:07.602Z,21.10
2022-12-28T00:27:37.738Z,18.73
2022-12-28T00:30:07.053Z,17.20
2022-12-28T00:32:35.348Z,15.60
2022-12-28T00:35:03.744Z,17.80
2022-12-28T00:37:33.310Z,17.23
2022-12-28T00:40:01.431Z,19.30
2022-12-28T00:42:29.832Z,21.37
2022-12-28T00:44:59.910Z,14.40
2022-12-28T00:47:28.309Z,19.87
2022-12-28T00:49:56.630Z,17.80
2022-12-28T00:52:25.079Z,17.33
2022-12-28T00:54:53.477Z,18.97
2022-12-28T00:57:22.932Z,15.13
2022-12-28T00:59:51.544Z,17.77
2022-12-28T01:02:21.660Z,17.87
2022-12-28T01:04:50.220Z,18.70
2022-12-28T01:07:18.470Z,22.60
2022-12-28T01:09:46.687Z,19.20
2022-12-28T01:12:15.320Z,19.63
2022-12-28T01:14:43.746Z,19.97
2022-12-28T01:17:12.194Z,17.97
2022-12-28T01:19:41.914Z,23.07
2022-12-28T01:22:10.623Z,20.53
2022-12-28T01:24:39.036Z,19.27
2022-12-28T01:27:07.306Z,20.23
2022-12-28T01:29:35.697Z,19.20
2022-12-28T01:32:04.289Z,17.07
2022-12-28T01:34:32.484Z,15.97
2022-12-28T01:37:02.381Z,20.37
2022-12-28T01:39:31.962Z,17.83
2022-12-28T01:42:01.787Z,18.00
2022-12-28T01:44:48.738Z,14.87
2022-12-28T01:47:21.029Z,20.60
2022-12-28T01:49:57.895Z,22.63
2022-12-28T01:52:34.962Z,18.73
2022-12-28T01:55:10.207Z,17.33
2022-12-28T01:57:44.001Z,20.57
2022-12-28T02:00:15.665Z,16.43
2022-12-28T02:02:48.441Z,19.40
2022-12-28T02:05:18.094Z,15.87
2022-12-28T02:07:53.783Z,16.90
2022-12-28T02:10:43.651Z,18.50
2022-12-28T02:13:12.667Z,21.47
2022-12-28T02:15:43.906Z,19.70
2022-12-28T02:18:14.380Z,17.87
2022-12-28T02:20:59.905Z,16.53
2022-12-28T02:24:19.146Z,16.57
2022-12-28T02:26:55.243Z,17.53
2022-12-28T02:29:49.498Z,18.03
2022-12-28T02:32:35.375Z,21.50
2022-12-28T02:35:09.862Z,18.77
2022-12-28T02:37:44.366Z,19.43
2022-12-28T02:40:18.978Z,21.00
2022-12-28T02:42:48.135Z,20.37
2022-12-28T02:45:58.047Z,21.10
2022-12-28T02:48:46.753Z,20.73
2022-12-28T02:51:34.322Z,19.47
2022-12-28T02:54:58.018Z,21.10
2022-12-28T02:57:44.206Z,21.67
2022-12-28T03:00:16.477Z,19.57
2022-12-28T03:03:01.769Z,22.63
2022-12-28T03:05:56.068Z,23.20
2022-12-28T03:08:31.896Z,23.77
2022-12-28T03:11:09.412Z,23.60
2022-12-28T03:13:44.841Z,20.37
2022-12-28T03:16:21.273Z,23.27
2022-12-28T03:19:11.971Z,22.67
2022-12-28T03:22:00.006Z,21.00
2022-12-28T03:24:48.614Z,20.23
2022-12-28T03:27:35.609Z,21.60
2022-12-28T03:30:26.601Z,19.70
2022-12-28T03:32:57.172Z,18.20
2022-12-28T03:35:34.145Z,21.57
2022-12-28T03:38:04.188Z,20.37
2022-12-28T03:40:39.260Z,22.80
2022-12-28T03:43:32.581Z,19.43
2022-12-28T03:46:06.420Z,20.57
2022-12-28T03:48:37.659Z,22.77
2022-12-28T03:51:09.973Z,19.57
2022-12-28T03:53:41.243Z,20.63
2022-12-28T03:56:11.768Z,18.90
2022-12-28T03:58:40.383Z,18.40
2022-12-28T04:01:10.255Z,21.63
2022-12-28T04:03:38.453Z,21.27
2022-12-28T04:06:09.676Z,21.23
2022-12-28T04:08:37.993Z,21.57
2022-12-28T04:11:06.976Z,19.67
2022-12-28T04:13:37.866Z,18.10
2022-12-28T04:16:09.878Z,20.43
2022-12-28T04:18:42.022Z,18.67
2022-12-28T04:21:12.856Z,23.50
2022-12-28T04:23:41.241Z,22.27
2022-12-28T04:26:12.090Z,25.90
2022-12-28T04:28:42.152Z,24.13
2022-12-28T04:31:13.771Z,22.50
2022-12-28T04:33:42.727Z,21.67
2022-12-28T04:36:16.396Z,24.67
2022-12-28T04:38:47.669Z,21.67
2022-12-28T04:41:16.144Z,23.23
2022-12-28T04:43:44.859Z,28.70
2022-12-28T04:46:17.079Z,25.67
2022-12-28T04:48:45.841Z,24.67
2022-12-28T04:51:20.221Z,24.90
2022-12-28T04:53:48.640Z,23.23
2022-12-28T04:56:18.182Z,23.37
2022-12-28T04:58:47.137Z,24.23
2022-12-28T05:01:19.866Z,25.40
2022-12-28T05:03:54.970Z,23.37
2022-12-28T05:06:27.845Z,24.23
2022-12-28T05:08:57.289Z,26.60
2022-12-28T05:11:29.143Z,23.50
2022-12-28T05:13:58.527Z,23.17
2022-12-28T05:16:28.759Z,24.33
2022-12-28T05:18:58.985Z,21.77
2022-12-28T05:21:30.166Z,24.07
2022-12-28T05:23:59.224Z,24.77
2022-12-28T05:26:30.007Z,23.00
2022-12-28T05:28:59.197Z,20.43
2022-12-28T05:31:27.923Z,23.30
2022-12-28T05:33:58.203Z,20.77
2022-12-28T05:36:30.048Z,21.70
2022-12-28T05:38:58.663Z,20.67
2022-12-28T05:41:29.009Z,20.37
2022-12-28T05:43:57.524Z,19.10
2022-12-28T05:46:29.089Z,20.03
2022-12-28T05:48:58.540Z,20.20
2022-12-28T05:51:30.554Z,18.20
2022-12-28T05:54:05.935Z,21.60
2022-12-28T05:56:34.998Z,18.23
2022-12-28T05:59:05.910Z,23.03
2022-12-28T06:01:36.963Z,18.97
2022-12-28T06:04:07.451Z,19.73
2022-12-28T06:06:38.043Z,20.20
2022-12-28T06:09:06.829Z,22.67
2022-12-28T06:11:35.189Z,22.33
2022-12-28T06:14:06.093Z,18.70
2022-12-28T06:16:36.357Z,20.97
2022-12-28T06:19:09.031Z,20.47
2022-12-28T06:21:40.936Z,22.03
2022-12-28T06:24:10.687Z,22.17
2022-12-28T06:26:41.311Z,23.50
2022-12-28T06:29:09.941Z,24.73
2022-12-28T06:31:40.114Z,25.03
2022-12-28T06:34:10.301Z,23.20
2022-12-28T06:36:42.299Z,20.60
2022-12-28T06:39:12.741Z,24.83
2022-12-28T06:41:40.971Z,25.37
2022-12-28T06:44:10.518Z,22.20
2022-12-28T06:46:40.599Z,24.83
2022-12-28T06:49:09.017Z,20.80
2022-12-28T06:51:42.172Z,22.83
2022-12-28T06:54:12.025Z,24.47
2022-12-28T06:56:40.660Z,21.30
2022-12-28T06:59:09.470Z,24.63
2022-12-28T07:01:39.739Z,23.63
2022-12-28T07:04:10.137Z,24.73
2022-12-28T07:06:42.582Z,23.03
2022-12-28T07:09:13.735Z,25.97
2022-12-28T07:11:42.709Z,23.20
2022-12-28T07:14:12.137Z,29.10
2022-12-28T07:19:08.420Z,22.37
2022-12-28T07:21:40.169Z,27.40
2022-12-28T07:24:09.547Z,22.77
2022-12-28T07:26:39.345Z,25.77
2022-12-28T07:29:09.367Z,22.53
2022-12-28T07:31:45.259Z,22.90
2022-12-28T07:34:14.581Z,22.50
2022-12-28T07:36:45.152Z,23.97
2022-12-28T07:39:14.780Z,19.07
2022-12-28T07:41:43.751Z,22.87
2022-12-28T07:44:16.768Z,24.97
2022-12-28T07:46:46.036Z,23.47
2022-12-28T07:49:14.551Z,20.47
2022-12-28T07:51:44.364Z,21.43
2022-12-28T07:54:12.831Z,17.43
2022-12-28T07:59:08.479Z,21.63
2022-12-28T08:01:37.975Z,18.10
2022-12-28T08:04:09.379Z,19.17
2022-12-28T08:06:39.618Z,19.10
2022-12-28T08:09:11.288Z,18.77
2022-12-28T08:11:42.491Z,18.93
2022-12-28T08:14:11.703Z,15.80
2022-12-28T08:16:41.924Z,16.23
2022-12-28T08:19:11.455Z,15.90
2022-12-28T08:21:43.389Z,17.17
2022-12-28T08:24:15.897Z,17.87
2022-12-28T08:26:44.980Z,13.70
2022-12-28T08:29:16.213Z,13.73
2022-12-28T08:31:45.849Z,15.57
2022-12-28T08:34:20.055Z,15.63
2022-12-28T08:36:48.769Z,14.63
2022-12-28T08:39:20.028Z,15.63
2022-12-28T08:41:48.538Z,13.17
2022-12-28T08:44:16.990Z,13.70
2022-12-28T08:46:45.695Z,14.47
2022-12-28T08:49:14.069Z,13.83
2022-12-28T08:51:43.469Z,12.33
2022-12-28T08:54:13.761Z,12.77
2022-12-28T08:56:47.163Z,12.77
2022-12-28T08:59:18.723Z,11.37
2022-12-28T09:01:48.212Z,12.47
2022-12-28T09:04:18.730Z,12.10
2022-12-28T09:06:47.279Z,13.07
2022-12-28T09:09:17.605Z,10.67
2022-12-28T09:11:48.932Z,14.23
2022-12-28T09:14:23.070Z,10.83
2022-12-28T09:16:53.384Z,12.63
2022-12-28T09:19:22.828Z,9.33
2022-12-28T09:21:53.533Z,12.70
2022-12-28T09:24:22.442Z,13.57
2022-12-28T09:26:55.539Z,8.53
2022-12-28T09:29:23.781Z,9.13
2022-12-28T09:31:52.323Z,11.63
2022-12-28T09:34:35.542Z,12.80
2022-12-28T09:37:05.909Z,8.00
2022-12-28T09:39:36.060Z,8.53
2022-12-28T09:42:10.072Z,9.70
2022-12-28T09:44:57.882Z,8.63
2022-12-28T09:47:35.738Z,7.50
2022-12-28T09:50:32.571Z,10.10
2022-12-28T09:53:21.426Z,11.70
2022-12-28T09:55:58.766Z,8.57
2022-12-28T09:58:30.977Z,10.53
2022-12-28T10:01:05.668Z,8.83
2022-12-28T10:03:38.455Z,11.07
2022-12-28T10:06:12.445Z,7.20
2022-12-28T10:08:46.075Z,8.20
2022-12-28T10:11:20.549Z,12.57
2022-12-28T10:13:56.485Z,9.03
2022-12-28T10:16:27.984Z,9.60
2022-12-28T10:18:56.651Z,9.33
2022-12-28T10:21:32.786Z,9.60
2022-12-28T10:24:30.235Z,9.70
2022-12-28T10:26:52.473Z,8.57
2022-12-28T10:29:24.574Z,7.30
2022-12-28T10:32:09.342Z,10.00
2022-12-28T10:34:38.292Z,7.03
2022-12-28T10:37:15.609Z,7.73
2022-12-28T10:39:51.634Z,7.17
2022-12-28T10:42:29.707Z,7.87
2022-12-28T10:45:07.393Z,11.97
2022-12-28T10:47:38.510Z,9.43
2022-12-28T10:50:35.825Z,6.87
2022-12-28T10:53:00.075Z,12.43
2022-12-28T10:55:30.605Z,8.67
2022-12-28T10:58:34.512Z,6.43
2022-12-28T11:01:08.103Z,6.83
2022-12-28T11:03:39.199Z,5.50
2022-12-28T11:06:15.156Z,7.93
2022-12-28T11:08:45.082Z,6.57
2022-12-28T11:11:22.125Z,8.10
2022-12-28T11:13:56.005Z,11.47
2022-12-28T11:16:25.906Z,8.10
2022-12-28T11:18:54.443Z,6.43
2022-12-28T11:21:24.610Z,6.00
2022-12-28T11:23:55.096Z,9.33
2022-12-28T11:26:24.350Z,8.13
2022-12-28T11:28:54.266Z,8.33
2022-12-28T11:31:31.860Z,6.73
2022-12-28T11:34:04.773Z,7.30
2022-12-28T11:36:41.689Z,7.70
2022-12-28T11:39:33.173Z,7.97
2022-12-28T11:42:38.336Z,10.67
2022-12-28T11:44:55.390Z,11.83
2022-12-28T11:47:33.562Z,10.47
2022-12-28T11:50:42.468Z,16.03
2022-12-28T11:53:45.259Z,7.27
2022-12-28T11:56:15.149Z,13.10
2022-12-28T11:59:01.921Z,6.03
2022-12-28T12:01:44.517Z,5.20
2022-12-28T12:04:39.271Z,7.33
2022-12-28T12:07:18.439Z,5.90
2022-12-28T12:09:48.617Z,8.13
2022-12-28T12:12:38.632Z,8.60
2022-12-28T12:15:21.337Z,12.23
2022-12-28T12:17:54.293Z,8.73
2022-12-28T12:20:32.117Z,6.20
2022-12-28T12:23:06.827Z,7.40
2022-12-28T12:25:43.508Z,9.73
2022-12-28T12:28:32.852Z,5.83
2022-12-28T12:31:08.269Z,7.93
2022-12-28T12:33:44.642Z,7.27
2022-12-28T12:36:35.109Z,8.33
2022-12-28T12:39:26.370Z,6.40
2022-12-28T12:42:05.282Z,7.83
2022-12-28T12:44:44.046Z,5.80
2022-12-28T12:48:03.145Z,4.43
2022-12-28T12:50:57.933Z,6.07
2022-12-28T12:53:48.525Z,5.43
2022-12-28T12:56:30.876Z,9.03
2022-12-28T12:59:12.579Z,6.27
2022-12-28T13:01:51.388Z,4.63
2022-12-28T13:04:24.052Z,7.83
2022-12-28T13:06:58.107Z,6.60
2022-12-28T13:09:35.708Z,8.30
2022-12-28T13:12:17.118Z,6.03
2022-12-28T13:14:47.573Z,5.87
2022-12-28T13:17:28.128Z,8.00
2022-12-28T13:20:11.985Z,5.40
2022-12-28T13:22:47.887Z,4.93
2022-12-28T13:25:29.845Z,5.30
2022-12-28T13:28:01.502Z,5.77
2022-12-28T13:30:31.180Z,3.20
2022-12-28T13:33:03.342Z,3.50
2022-12-28T13:35:34.809Z,5.97
2022-12-28T13:38:06.882Z,6.33
2022-12-28T13:40:39.805Z,6.50
2022-12-28T13:43:37.760Z,6.07
2022-12-28T13:46:13.051Z,8.83
2022-12-28T13:48:47.027Z,4.87
2022-12-28T13:51:19.090Z,6.73
2022-12-28T13:53:52.813Z,4.47
2022-12-28T13:56:27.780Z,6.63
2022-12-28T13:59:00.816Z,5.57
2022-12-28T14:01:41.361Z,6.00
2022-12-28T14:07:16.547Z,4.57
2022-12-28T14:09:46.613Z,4.60
2022-12-28T14:12:17.639Z,5.43
2022-12-28T14:14:46.983Z,6.17
2022-12-28T14:17:15.951Z,5.10
2022-12-28T14:19:48.050Z,3.73
2022-12-28T14:22:33.686Z,5.23
2022-12-28T14:25:08.025Z,3.80
2022-12-28T14:27:44.950Z,5.50
2022-12-28T14:30:25.926Z,4.63
2022-12-28T14:32:55.842Z,5.07
2022-12-28T14:35:27.563Z,6.57
2022-12-28T14:37:58.119Z,6.80
2022-12-28T14:40:30.961Z,6.57
2022-12-28T14:43:06.882Z,6.50
2022-12-28T14:46:05.262Z,4.53
2022-12-28T14:48:40.883Z,7.87
2022-12-28T14:51:28.896Z,5.27
2022-12-28T14:54:25.993Z,7.47
2022-12-28T14:57:00.838Z,9.03
2022-12-28T14:59:34.148Z,4.40
2022-12-28T15:02:03.887Z,4.80
2022-12-28T15:04:50.045Z,2.67
2022-12-28T15:07:18.466Z,2.93
2022-12-28T15:09:47.561Z,3.60
2022-12-28T15:12:17.746Z,4.13
2022-12-28T15:14:48.434Z,4.13
2022-12-28T15:17:17.739Z,5.47
2022-12-28T15:19:46.834Z,3.53
2022-12-28T15:22:15.584Z,5.73
2022-12-28T15:24:49.067Z,4.97
2022-12-28T15:27:17.466Z,5.37
2022-12-28T15:30:05.399Z,2.87
2022-12-28T15:32:35.850Z,3.93
2022-12-28T15:35:04.712Z,5.10
2022-12-28T15:37:33.611Z,4.10
2022-12-28T15:40:02.209Z,5.17
2022-12-28T15:42:36.545Z,6.00
2022-12-28T15:45:12.059Z,4.57
2022-12-28T15:47:40.694Z,6.17
2022-12-28T15:50:11.747Z,4.97
2022-12-28T15:52:41.720Z,4.20
2022-12-28T15:55:10.475Z,7.13
2022-12-28T15:57:38.875Z,7.27
2022-12-28T16:00:08.310Z,10.57
2022-12-28T16:02:41.175Z,7.13
2022-12-28T16:05:10.632Z,6.83
2022-12-28T16:07:40.560Z,7.80
2022-12-28T16:10:10.267Z,6.00
2022-12-28T16:12:39.148Z,8.83
2022-12-28T16:15:09.557Z,5.83
2022-12-28T16:17:49.948Z,7.70
2022-12-28T16:20:23.705Z,6.63
2022-12-28T16:22:53.827Z,7.10
2022-12-28T16:25:24.227Z,8.00
2022-12-28T16:27:52.668Z,6.37
2022-12-28T16:30:21.206Z,3.77
2022-12-28T16:32:51.526Z,5.13
2022-12-28T16:35:20.531Z,6.90
2022-12-28T16:37:48.929Z,4.27
2022-12-28T16:40:17.500Z,8.20
2022-12-28T16:42:46.316Z,5.40
2022-12-28T16:45:15.186Z,3.57
2022-12-28T16:47:45.219Z,3.63
2022-12-28T16:50:18.401Z,5.33
2022-12-28T16:52:46.927Z,7.07
2022-12-28T16:55:15.423Z,4.20
2022-12-28T16:57:45.365Z,5.03
2022-12-28T17:00:15.611Z,4.93
2022-12-28T17:02:47.569Z,4.20
2022-12-28T17:08:03.959Z,6.27
2022-12-28T17:10:32.983Z,5.73
2022-12-28T17:13:01.476Z,5.13
2022-12-28T17:15:31.319Z,3.37
2022-12-28T17:18:00.928Z,6.10
2022-12-28T17:20:30.790Z,6.40
2022-12-28T17:22:59.450Z,4.83
2022-12-28T17:25:29.079Z,3.50
2022-12-28T17:27:57.796Z,3.60
2022-12-28T17:30:26.716Z,5.17
2022-12-28T17:32:55.519Z,5.30
2022-12-28T17:35:24.152Z,4.80
2022-12-28T17:37:54.163Z,5.00
2022-12-28T17:40:25.018Z,4.63
2022-12-28T17:42:53.720Z,2.30
2022-12-28T17:45:22.173Z,3.80
2022-12-28T17:47:50.521Z,5.70
2022-12-28T17:50:20.270Z,4.17
2022-12-28T17:52:48.909Z,2.30
2022-12-28T17:55:20.030Z,2.73
2022-12-28T17:57:48.640Z,3.27
2022-12-28T18:00:19.153Z,2.50
2022-12-28T18:02:47.974Z,2.23
2022-12-28T18:05:18.394Z,6.60
2022-12-28T18:07:47.781Z,3.90
2022-12-28T18:10:16.615Z,3.47
2022-12-28T18:12:46.665Z,7.07
2022-12-28T18:15:15.146Z,4.67
2022-12-28T18:17:45.897Z,3.40
2022-12-28T18:20:18.388Z,3.40
2022-12-28T18:22:46.865Z,3.70
2022-12-28T18:25:17.094Z,3.27
2022-12-28T18:27:47.178Z,3.33
2022-12-28T18:30:15.641Z,5.00
2022-12-28T18:32:44.044Z,5.77
2022-12-28T18:35:13.469Z,3.97
2022-12-28T18:37:42.271Z,4.50
2022-12-28T18:40:11.967Z,4.63
2022-12-28T18:42:40.364Z,5.00
2022-12-28T18:45:12.191Z,3.93
2022-12-28T18:47:40.546Z,4.90
2022-12-28T18:50:12.583Z,2.70
2022-12-28T18:52:42.452Z,4.13
2022-12-28T18:55:11.576Z,2.80
2022-12-28T18:57:39.770Z,4.57
2022-12-28T19:00:13.665Z,3.93
2022-12-28T19:02:42.053Z,6.87
2022-12-28T19:05:11.718Z,3.77
2022-12-28T19:07:45.727Z,4.23
2022-12-28T19:10:20.369Z,3.13
2022-12-28T19:12:51.189Z,5.17
2022-12-28T19:15:20.974Z,4.93
2022-12-28T19:17:49.868Z,7.77
2022-12-28T19:20:18.363Z,3.93
2022-12-28T19:22:46.895Z,7.23
2022-12-28T19:25:15.896Z,2.73
2022-12-28T19:27:44.956Z,4.77
2022-12-28T19:30:14.401Z,4.97
2022-12-28T19:32:44.113Z,2.77
2022-12-28T19:35:12.749Z,3.27
2022-12-28T19:37:41.076Z,2.73
2022-12-28T19:40:10.586Z,3.80
2022-12-28T19:42:41.531Z,2.63
2022-12-28T19:45:12.161Z,3.17
2022-12-28T19:47:47.532Z,3.63
2022-12-28T19:50:15.961Z,2.20
2022-12-28T19:52:45.512Z,3.80
2022-12-28T19:55:14.975Z,3.70
2022-12-28T19:57:44.467Z,4.50
2022-12-28T20:00:13.878Z,4.10
2022-12-28T20:02:46.537Z,3.43
2022-12-28T20:05:18.264Z,2.60
2022-12-28T20:07:47.286Z,5.50
2022-12-28T20:10:16.141Z,2.97
2022-12-28T20:12:46.709Z,4.30
2022-12-28T20:15:16.532Z,36.77
2022-12-28T20:17:49.666Z,5.37
2022-12-28T20:20:23.760Z,3.00
2022-12-28T20:22:55.894Z,7.10
2022-12-28T20:25:25.387Z,3.73
2022-12-28T20:27:54.074Z,4.23
2022-12-28T20:30:22.448Z,4.33
2022-12-28T20:32:53.264Z,4.33
2022-12-28T20:35:21.572Z,3.83
2022-12-28T20:37:50.875Z,2.37
2022-12-28T20:40:19.747Z,3.73
2022-12-28T20:43:05.257Z,4.67
2022-12-28T20:45:35.281Z,3.73
2022-12-28T20:48:05.863Z,5.17
2022-12-28T20:50:34.502Z,5.07
2022-12-28T20:53:02.825Z,3.47
2022-12-28T20:55:31.031Z,2.60
2022-12-28T20:58:01.325Z,3.50
2022-12-28T21:00:32.517Z,4.27
2022-12-28T21:03:01.127Z,3.83
2022-12-28T21:05:31.448Z,2.30
2022-12-28T21:07:59.927Z,2.90
2022-12-28T21:10:28.275Z,2.83
2022-12-28T21:12:58.741Z,2.50
2022-12-28T21:15:27.591Z,4.30
2022-12-28T21:17:57.555Z,2.83
2022-12-28T21:20:35.445Z,3.80
2022-12-28T21:23:08.362Z,4.13
2022-12-28T21:25:36.695Z,6.00
2022-12-28T21:28:05.091Z,4.33
2022-12-28T21:30:33.213Z,4.27
2022-12-28T21:33:02.035Z,4.07
2022-12-28T21:35:34.066Z,4.33
2022-12-28T21:38:04.756Z,4.07
2022-12-28T21:40:34.742Z,5.07
2022-12-28T21:43:03.084Z,3.77
2022-12-28T21:45:39.329Z,3.47
2022-12-28T21:48:12.773Z,7.60
2022-12-28T21:50:44.254Z,5.23
2022-12-28T21:53:15.351Z,3.60
2022-12-28T21:55:45.357Z,5.20
2022-12-28T21:58:17.255Z,4.37
2022-12-28T22:01:09.810Z,4.23
2022-12-28T22:03:57.936Z,3.93
2022-12-28T22:06:26.796Z,4.83
2022-12-28T22:09:12.876Z,4.43
2022-12-28T22:12:00.371Z,5.77
2022-12-28T22:14:28.512Z,6.10
2022-12-28T22:16:57.149Z,4.83
2022-12-28T22:19:25.850Z,5.07
2022-12-28T22:21:54.183Z,5.63
2022-12-28T22:24:22.529Z,5.67
2022-12-28T22:26:52.302Z,6.87
2022-12-28T22:29:21.562Z,4.70
2022-12-28T22:31:49.761Z,3.60
2022-12-28T22:34:18.163Z,5.73
2022-12-28T22:36:46.416Z,6.93
2022-12-28T22:39:14.743Z,6.37
2022-12-28T22:41:43.062Z,5.70
2022-12-28T22:44:13.076Z,4.47
2022-12-28T22:46:43.543Z,5.87
2022-12-28T22:49:12.324Z,5.63
2022-12-28T22:51:41.155Z,5.40
2022-12-28T22:54:09.703Z,5.43
2022-12-28T22:56:38.375Z,7.63
2022-12-28T22:59:10.881Z,6.30
2022-12-28T23:01:48.483Z,5.70
2022-12-28T23:04:17.060Z,6.37
2022-12-28T23:06:47.543Z,6.30
2022-12-28T23:09:16.083Z,4.47
2022-12-28T23:11:44.808Z,6.00
2022-12-28T23:14:32.488Z,5.63
2022-12-28T23:17:03.850Z,5.17
2022-12-28T23:19:49.958Z,5.70
2022-12-28T23:22:39.315Z,5.53
2022-12-28T23:25:25.421Z,5.93
2022-12-28T23:27:53.953Z,5.93
2022-12-28T23:30:24.840Z,6.83
2022-12-28T23:32:58.922Z,6.00
2022-12-28T23:35:29.076Z,4.93
2022-12-28T23:37:57.512Z,6.43
2022-12-28T23:40:26.479Z,5.33
2022-12-28T23:42:55.340Z,5.27
2022-12-28T23:45:24.317Z,4.70
2022-12-28T23:48:02.696Z,4.43
2022-12-28T23:50:33.419Z,4.63
2022-12-28T23:53:03.692Z,4.67
2022-12-28T23:55:32.692Z,3.53
2022-12-28T23:58:01.401Z,5.40
